createdAt,value
2023-01-06T00:01:14.808Z,6.90
2023-01-06T00:03:41.406Z,6.80
2023-01-06T00:06:11.459Z,6.80
2023-01-06T00:08:38.581Z,6.70
2023-01-06T00:11:13.826Z,6.80
2023-01-06T00:13:41.292Z,6.70
2023-01-06T00:16:12.763Z,6.70
2023-01-06T00:18:40.135Z,6.60
2023-01-06T00:21:07.437Z,6.60
2023-01-06T00:23:35.054Z,6.60
2023-01-06T00:26:02.432Z,6.50
2023-01-06T00:28:29.410Z,6.50
2023-01-06T00:30:56.137Z,6.40
2023-01-06T00:33:23.684Z,6.40
2023-01-06T00:35:50.645Z,6.40
2023-01-06T00:38:17.804Z,6.40
2023-01-06T00:40:44.377Z,6.50
2023-01-06T00:43:10.944Z,6.40
2023-01-06T00:45:37.560Z,6.40
2023-01-06T00:48:04.429Z,6.40
2023-01-06T00:50:30.978Z,6.40
2023-01-06T00:52:57.525Z,6.40
2023-01-06T00:55:24.073Z,6.40
2023-01-06T00:57:53.944Z,6.30
2023-01-06T01:00:20.610Z,6.20
2023-01-06T01:02:47.657Z,6.20
2023-01-06T01:05:14.823Z,6.20
2023-01-06T01:07:41.445Z,6.20
2023-01-06T01:10:08.570Z,6.10
2023-01-06T01:12:35.150Z,6.10
2023-01-06T01:15:01.743Z,6.10
2023-01-06T01:17:31.288Z,6.10
2023-01-06T01:19:59.845Z,6.00
2023-01-06T01:22:28.776Z,6.00
2023-01-06T01:24:55.316Z,6.00
2023-01-06T01:27:21.941Z,5.90
2023-01-06T01:29:48.561Z,5.90
2023-01-06T01:32:15.185Z,5.80
2023-01-06T01:34:41.760Z,5.80
2023-01-06T01:37:08.544Z,5.80
2023-01-06T01:39:35.127Z,5.80
2023-01-06T01:42:01.710Z,5.80
2023-01-06T01:44:53.973Z,5.80
2023-01-06T01:47:33.071Z,5.80
2023-01-06T01:50:08.200Z,5.80
2023-01-06T01:52:35.799Z,5.80
2023-01-06T01:55:04.357Z,5.70
2023-01-06T01:57:43.563Z,5.70
2023-01-06T02:00:10.764Z,5.70
2023-01-06T02:05:16.252Z,5.70
2023-01-06T02:07:42.936Z,5.70
2023-01-06T02:10:13.670Z,5.70
2023-01-06T02:12:41.861Z,5.70
2023-01-06T02:15:23.807Z,5.70
2023-01-06T02:18:06.311Z,5.70
2023-01-06T02:20:54.343Z,5.70
2023-01-06T02:23:24.062Z,5.70
2023-01-06T02:26:25.771Z,5.70
2023-01-06T02:29:23.172Z,5.70
2023-01-06T02:31:58.695Z,5.70
2023-01-06T02:34:53.952Z,5.70
2023-01-06T02:37:44.224Z,5.70
2023-01-06T02:40:22.848Z,5.70
2023-01-06T02:43:15.900Z,5.70
2023-01-06T02:45:42.483Z,5.70
2023-01-06T02:48:15.371Z,5.70
2023-01-06T02:51:07.567Z,5.70
2023-01-06T02:54:03.566Z,5.70
2023-01-06T02:56:36.597Z,5.70
2023-01-06T02:59:09.685Z,5.70
2023-01-06T03:01:47.777Z,5.70
2023-01-06T03:04:22.433Z,5.70
2023-01-06T03:06:51.780Z,5.70
2023-01-06T03:09:26.621Z,5.70
2023-01-06T03:11:53.188Z,5.70
2023-01-06T03:14:29.095Z,5.70
2023-01-06T03:16:56.087Z,5.60
2023-01-06T03:19:23.897Z,5.60
2023-01-06T03:21:51.763Z,5.60
2023-01-06T03:24:18.617Z,5.60
2023-01-06T03:26:47.136Z,5.60
2023-01-06T03:29:16.726Z,5.60
2023-01-06T03:32:00.564Z,5.60
2023-01-06T03:34:53.281Z,5.60
2023-01-06T03:37:44.269Z,5.60
2023-01-06T03:40:25.958Z,5.70
2023-01-06T03:43:12.675Z,5.70
2023-01-06T03:46:00.559Z,5.70
2023-01-06T03:48:48.718Z,5.80
2023-01-06T03:51:36.570Z,5.80
2023-01-06T03:54:21.465Z,5.80
2023-01-06T03:56:57.395Z,5.80
2023-01-06T03:59:29.128Z,5.80
2023-01-06T04:01:56.900Z,5.80
2023-01-06T04:04:23.865Z,5.80
2023-01-06T04:06:50.518Z,5.90
2023-01-06T04:09:17.163Z,5.90
2023-01-06T04:12:02.409Z,5.80
2023-01-06T04:14:28.955Z,5.80
2023-01-06T04:16:55.561Z,5.80
2023-01-06T04:19:22.425Z,5.70
2023-01-06T04:21:49.019Z,5.70
2023-01-06T04:24:15.647Z,5.70
2023-01-06T04:26:42.288Z,5.80
2023-01-06T04:29:08.865Z,5.70
2023-01-06T04:31:35.848Z,5.70
2023-01-06T04:34:02.683Z,5.70
2023-01-06T04:36:30.700Z,5.70
2023-01-06T04:38:57.298Z,5.70
2023-01-06T04:41:23.928Z,5.80
2023-01-06T04:43:50.548Z,5.80
2023-01-06T04:46:17.215Z,5.80
2023-01-06T04:48:43.862Z,5.80
2023-01-06T04:51:11.703Z,5.80
2023-01-06T04:53:40.295Z,5.80
2023-01-06T04:56:10.111Z,5.80
2023-01-06T04:58:37.604Z,5.80
2023-01-06T05:01:07.197Z,5.90
2023-01-06T05:03:35.903Z,5.90
2023-01-06T05:06:04.460Z,5.90
2023-01-06T05:08:32.080Z,5.90
2023-01-06T05:11:04.641Z,5.90
2023-01-06T05:13:32.397Z,5.70
2023-01-06T05:15:59.220Z,5.70
2023-01-06T05:18:25.990Z,5.70
2023-01-06T05:20:53.965Z,5.60
2023-01-06T05:23:21.045Z,5.60
2023-01-06T05:25:49.892Z,5.60
2023-01-06T05:28:16.590Z,5.60
2023-01-06T05:30:43.163Z,5.60
2023-01-06T05:33:09.830Z,5.60
2023-01-06T05:35:36.618Z,5.60
2023-01-06T05:38:03.221Z,5.60
2023-01-06T05:40:29.779Z,5.50
2023-01-06T05:42:56.759Z,5.50
2023-01-06T05:45:24.870Z,5.40
2023-01-06T05:47:52.235Z,5.40
2023-01-06T05:50:19.080Z,5.40
2023-01-06T05:52:45.641Z,5.40
2023-01-06T05:55:12.208Z,5.40
2023-01-06T05:57:38.774Z,5.30
2023-01-06T06:00:06.958Z,5.30
2023-01-06T06:02:33.649Z,5.30
2023-01-06T06:05:00.324Z,5.30
2023-01-06T06:07:26.923Z,5.20
2023-01-06T06:09:53.522Z,5.30
2023-01-06T06:12:20.097Z,5.30
2023-01-06T06:14:46.669Z,5.30
2023-01-06T06:17:13.244Z,5.30
2023-01-06T06:19:39.806Z,5.30
2023-01-06T06:22:06.941Z,5.20
2023-01-06T06:24:34.195Z,5.20
2023-01-06T06:27:00.831Z,5.30
2023-01-06T06:29:27.456Z,5.30
2023-01-06T06:31:54.089Z,5.30
2023-01-06T06:34:20.659Z,5.30
2023-01-06T06:36:47.492Z,5.30
2023-01-06T06:39:14.107Z,5.30
2023-01-06T06:41:40.705Z,5.20
2023-01-06T06:44:07.412Z,5.20
2023-01-06T06:46:34.013Z,5.30
2023-01-06T06:49:00.626Z,5.20
2023-01-06T06:51:27.238Z,5.20
2023-01-06T06:53:53.852Z,5.20
2023-01-06T06:56:21.473Z,5.20
2023-01-06T06:58:48.520Z,5.20
2023-01-06T07:01:18.039Z,5.20
2023-01-06T07:03:45.217Z,5.20
2023-01-06T07:06:16.066Z,5.20
2023-01-06T07:08:44.266Z,5.20
2023-01-06T07:11:10.948Z,5.20
2023-01-06T07:13:38.909Z,5.10
2023-01-06T07:16:06.481Z,5.10
2023-01-06T07:18:33.145Z,5.10
2023-01-06T07:20:59.780Z,5.10
2023-01-06T07:23:26.334Z,5.10
2023-01-06T07:25:58.619Z,5.00
2023-01-06T07:28:26.244Z,5.00
2023-01-06T07:30:53.433Z,5.00
2023-01-06T07:33:20.337Z,5.10
2023-01-06T07:35:47.401Z,5.10
2023-01-06T07:38:14.082Z,5.10
2023-01-06T07:40:40.914Z,5.10
2023-01-06T07:43:09.334Z,5.10
2023-01-06T07:45:36.467Z,5.20
2023-01-06T07:48:07.188Z,5.20
2023-01-06T07:50:34.163Z,5.40
2023-01-06T07:53:02.216Z,5.80
2023-01-06T07:55:30.219Z,5.70
2023-01-06T07:57:58.457Z,5.70
2023-01-06T08:00:25.366Z,5.70
2023-01-06T08:02:52.101Z,5.70
2023-01-06T08:05:18.841Z,5.70
2023-01-06T08:07:45.565Z,5.80
2023-01-06T08:10:12.328Z,5.80
2023-01-06T08:12:38.916Z,5.80
2023-01-06T08:15:06.396Z,5.80
2023-01-06T08:17:32.981Z,5.80
2023-01-06T08:19:59.578Z,5.80
2023-01-06T08:22:26.186Z,5.90
2023-01-06T08:24:52.775Z,5.90
2023-01-06T08:27:20.599Z,5.80
2023-01-06T08:29:49.866Z,5.90
2023-01-06T08:32:16.491Z,5.90
2023-01-06T08:34:43.053Z,5.80
2023-01-06T08:37:09.639Z,5.90
2023-01-06T08:39:36.317Z,5.90
2023-01-06T08:42:02.976Z,5.90
2023-01-06T08:44:29.551Z,5.90
2023-01-06T08:46:56.304Z,6.00
2023-01-06T08:49:22.910Z,6.00
2023-01-06T08:51:49.519Z,6.10
2023-01-06T08:54:16.315Z,6.20
2023-01-06T08:56:44.579Z,6.20
2023-01-06T08:59:15.238Z,6.30
2023-01-06T09:01:42.863Z,6.30
2023-01-06T09:04:11.036Z,6.30
2023-01-06T09:06:38.336Z,6.40
2023-01-06T09:09:06.985Z,6.40
2023-01-06T09:11:34.256Z,6.40
2023-01-06T09:14:01.273Z,6.50
2023-01-06T09:16:27.888Z,6.40
2023-01-06T09:18:54.539Z,6.50
2023-01-06T09:21:23.391Z,6.50
2023-01-06T09:23:50.656Z,6.50
2023-01-06T09:26:20.013Z,6.60
2023-01-06T09:28:47.404Z,6.60
2023-01-06T09:31:14.219Z,6.60
2023-01-06T09:33:40.888Z,6.60
2023-01-06T09:36:08.084Z,6.60
2023-01-06T09:38:34.714Z,6.60
2023-01-06T09:41:16.079Z,6.60
2023-01-06T09:43:48.734Z,6.60
2023-01-06T09:46:26.844Z,6.60
2023-01-06T09:49:25.875Z,6.60
2023-01-06T09:52:06.781Z,6.60
2023-01-06T09:54:37.295Z,6.60
2023-01-06T09:57:15.548Z,6.70
2023-01-06T09:59:52.233Z,6.70
2023-01-06T10:02:29.184Z,6.80
2023-01-06T10:04:55.948Z,6.80
2023-01-06T10:07:29.511Z,6.80
2023-01-06T10:10:22.169Z,6.90
2023-01-06T10:13:03.428Z,6.90
2023-01-06T10:15:59.824Z,6.90
2023-01-06T10:18:39.411Z,7.00
2023-01-06T10:21:23.370Z,7.00
2023-01-06T10:24:27.620Z,7.10
2023-01-06T10:27:14.602Z,7.10
2023-01-06T10:29:43.160Z,7.10
2023-01-06T10:32:17.271Z,7.20
2023-01-06T10:34:49.315Z,7.30
2023-01-06T10:37:32.172Z,7.30
2023-01-06T10:40:26.545Z,7.30
2023-01-06T10:43:06.747Z,7.40
2023-01-06T10:45:45.511Z,7.40
2023-01-06T10:48:22.724Z,7.30
2023-01-06T10:50:49.401Z,7.40
2023-01-06T10:53:16.734Z,7.50
2023-01-06T10:55:53.097Z,7.50
2023-01-06T10:58:22.908Z,7.50
2023-01-06T11:01:01.909Z,7.50
2023-01-06T11:03:34.253Z,7.60
2023-01-06T11:06:15.665Z,7.60
2023-01-06T11:08:42.468Z,7.50
2023-01-06T11:11:27.775Z,7.50
2023-01-06T11:14:03.349Z,7.60
2023-01-06T11:16:32.356Z,7.60
2023-01-06T11:19:02.474Z,7.60
2023-01-06T11:21:43.343Z,7.70
2023-01-06T11:24:24.842Z,7.70
2023-01-06T11:26:57.830Z,7.70
2023-01-06T11:29:35.522Z,7.60
2023-01-06T11:32:18.182Z,7.70
2023-01-06T11:34:54.822Z,7.70
2023-01-06T11:37:42.279Z,7.70
2023-01-06T11:40:31.979Z,7.70
2023-01-06T11:43:01.248Z,7.70
2023-01-06T11:45:36.160Z,7.70
2023-01-06T11:48:07.758Z,7.70
2023-01-06T11:50:34.649Z,7.70
2023-01-06T11:53:04.569Z,7.80
2023-01-06T11:55:31.527Z,7.90
2023-01-06T11:57:58.123Z,7.90
2023-01-06T12:00:46.245Z,7.90
2023-01-06T12:03:44.647Z,7.90
2023-01-06T12:06:14.289Z,7.90
2023-01-06T12:08:59.271Z,7.90
2023-01-06T12:11:40.216Z,7.90
2023-01-06T12:14:27.435Z,8.00
2023-01-06T12:17:19.623Z,8.00
2023-01-06T12:19:56.345Z,8.10
2023-01-06T12:22:40.315Z,8.10
2023-01-06T12:25:29.492Z,8.10
2023-01-06T12:28:14.651Z,8.10
2023-01-06T12:30:50.995Z,8.10
2023-01-06T12:33:30.196Z,8.10
2023-01-06T12:36:02.400Z,8.10
2023-01-06T12:38:54.644Z,8.10
2023-01-06T12:41:45.377Z,8.10
2023-01-06T12:44:43.903Z,8.20
2023-01-06T12:47:39.386Z,8.20
2023-01-06T12:50:06.028Z,8.20
2023-01-06T12:52:47.006Z,8.20
2023-01-06T12:55:18.852Z,8.20
2023-01-06T12:57:59.661Z,8.30
2023-01-06T13:00:26.295Z,8.30
2023-01-06T13:03:03.379Z,8.30
2023-01-06T13:05:36.943Z,8.40
2023-01-06T13:08:20.833Z,8.40
2023-01-06T13:10:59.197Z,8.50
2023-01-06T13:13:52.918Z,8.50
2023-01-06T13:16:48.951Z,8.50
2023-01-06T13:19:32.320Z,8.50
2023-01-06T13:22:01.372Z,8.50
2023-01-06T13:24:34.423Z,8.60
2023-01-06T13:27:23.012Z,8.60
2023-01-06T13:30:01.492Z,8.60
2023-01-06T13:32:49.797Z,8.60
2023-01-06T13:35:40.711Z,8.70
2023-01-06T13:38:40.003Z,8.70
2023-01-06T13:41:14.571Z,8.70
2023-01-06T13:43:42.951Z,8.70
2023-01-06T13:46:14.175Z,8.70
2023-01-06T13:48:44.115Z,8.70
2023-01-06T13:51:13.486Z,8.70
2023-01-06T13:53:42.524Z,8.70
2023-01-06T13:56:15.153Z,8.70
2023-01-06T13:58:45.870Z,8.80
2023-01-06T14:01:18.724Z,8.80
2023-01-06T14:03:47.352Z,8.80
2023-01-06T14:06:23.056Z,8.80
2023-01-06T14:09:00.865Z,8.80
2023-01-06T14:11:37.643Z,8.80
2023-01-06T14:14:28.456Z,8.80
2023-01-06T14:16:57.021Z,8.80
2023-01-06T14:19:30.465Z,8.90
2023-01-06T14:22:27.500Z,8.90
2023-01-06T14:24:58.617Z,8.90
2023-01-06T14:28:00.658Z,8.90
2023-01-06T14:30:33.122Z,8.90
2023-01-06T14:33:07.611Z,8.90
2023-01-06T14:35:43.789Z,9.00
2023-01-06T14:38:19.674Z,9.00
2023-01-06T14:41:07.854Z,9.00
2023-01-06T14:44:11.181Z,9.00
2023-01-06T14:47:02.823Z,9.00
2023-01-06T14:49:49.308Z,9.00
2023-01-06T14:52:20.428Z,9.00
2023-01-06T14:54:50.470Z,9.00
2023-01-06T14:57:26.052Z,9.10
2023-01-06T15:00:06.167Z,9.10
2023-01-06T15:02:33.504Z,9.00
2023-01-06T15:05:01.226Z,9.10
2023-01-06T15:07:27.811Z,9.00
2023-01-06T15:10:17.658Z,9.10
2023-01-06T15:12:55.948Z,9.00
2023-01-06T15:15:27.792Z,9.00
2023-01-06T15:17:56.483Z,9.00
2023-01-06T15:20:32.906Z,8.90
2023-01-06T15:23:00.416Z,9.00
2023-01-06T15:25:31.123Z,9.00
2023-01-06T15:27:57.835Z,9.00
2023-01-06T15:30:27.231Z,9.00
2023-01-06T15:32:55.846Z,8.90
2023-01-06T15:35:29.472Z,8.90
2023-01-06T15:38:02.910Z,8.90
2023-01-06T15:40:29.738Z,8.90
2023-01-06T15:42:56.645Z,8.90
2023-01-06T15:45:33.845Z,8.90
2023-01-06T15:48:12.018Z,8.90
2023-01-06T15:50:38.885Z,8.90
2023-01-06T15:53:13.721Z,8.90
2023-01-06T15:55:43.544Z,8.90
2023-01-06T15:58:22.966Z,8.80
2023-01-06T16:01:11.063Z,8.90
2023-01-06T16:03:39.293Z,9.00
2023-01-06T16:06:13.988Z,9.00
2023-01-06T16:08:42.642Z,9.00
2023-01-06T16:11:40.772Z,9.00
2023-01-06T16:14:35.636Z,8.90
2023-01-06T16:17:25.395Z,8.90
2023-01-06T16:20:01.087Z,9.00
2023-01-06T16:22:37.193Z,9.00
2023-01-06T16:25:20.886Z,9.10
2023-01-06T16:27:50.019Z,9.00
2023-01-06T16:30:31.395Z,9.10
2023-01-06T16:33:00.152Z,9.20
2023-01-06T16:35:32.331Z,9.20
2023-01-06T16:37:59.141Z,9.20
2023-01-06T16:40:27.816Z,9.10
2023-01-06T16:43:00.233Z,9.10
2023-01-06T16:45:42.648Z,9.00
2023-01-06T16:48:13.734Z,9.10
2023-01-06T16:50:42.116Z,9.20
2023-01-06T16:53:22.885Z,9.20
2023-01-06T16:55:54.387Z,9.10
2023-01-06T16:58:22.435Z,9.10
2023-01-06T17:00:54.391Z,9.10
2023-01-06T17:03:24.009Z,9.10
2023-01-06T17:05:52.243Z,9.20
2023-01-06T17:08:24.474Z,9.20
2023-01-06T17:10:51.073Z,9.20
2023-01-06T17:13:36.346Z,9.10
2023-01-06T17:16:15.416Z,9.10
2023-01-06T17:18:57.041Z,9.20
2023-01-06T17:21:35.195Z,9.20
2023-01-06T17:24:25.343Z,9.20
2023-01-06T17:27:00.680Z,9.20
2023-01-06T17:29:30.418Z,9.20
2023-01-06T17:32:00.998Z,9.20
2023-01-06T17:34:33.550Z,9.20
2023-01-06T17:37:14.977Z,9.20
2023-01-06T17:39:44.462Z,9.20
2023-01-06T17:42:11.011Z,9.20
2023-01-06T17:44:46.477Z,9.20
2023-01-06T17:47:16.099Z,9.20
2023-01-06T17:50:29.714Z,9.10
2023-01-06T17:53:36.571Z,9.00
2023-01-06T17:56:06.586Z,8.90
2023-01-06T17:58:36.520Z,8.90
2023-01-06T18:01:05.969Z,8.80
2023-01-06T18:03:34.005Z,8.80
2023-01-06T18:06:06.106Z,8.70
2023-01-06T18:08:35.772Z,8.70
2023-01-06T18:11:21.552Z,8.70
2023-01-06T18:13:50.866Z,8.70
2023-01-06T18:16:32.477Z,8.70
2023-01-06T18:19:14.242Z,8.70
2023-01-06T18:21:41.437Z,8.80
2023-01-06T18:24:34.371Z,8.70
2023-01-06T18:27:04.111Z,8.80
2023-01-06T18:29:37.080Z,8.80
2023-01-06T18:32:22.883Z,8.70
2023-01-06T18:34:52.392Z,8.70
2023-01-06T18:37:26.921Z,8.70
2023-01-06T18:39:57.705Z,8.70
2023-01-06T18:42:32.982Z,8.70
2023-01-06T18:45:15.003Z,8.70
2023-01-06T18:47:43.236Z,8.70
2023-01-06T18:50:38.095Z,8.60
2023-01-06T18:53:13.938Z,8.70
2023-01-06T18:56:00.346Z,8.70
2023-01-06T18:58:52.461Z,8.70
2023-01-06T19:01:24.900Z,8.70
2023-01-06T19:04:14.402Z,8.60
2023-01-06T19:06:55.237Z,8.50
2023-01-06T19:09:34.759Z,8.50
2023-01-06T19:12:37.076Z,8.50
2023-01-06T19:15:23.028Z,8.50
2023-01-06T19:17:51.229Z,8.50
2023-01-06T19:20:19.214Z,8.50
2023-01-06T19:22:46.104Z,8.50
2023-01-06T19:25:30.494Z,8.40
2023-01-06T19:27:58.787Z,8.40
2023-01-06T19:30:53.373Z,8.40
2023-01-06T19:33:23.221Z,8.30
2023-01-06T19:35:51.827Z,8.30
2023-01-06T19:38:30.088Z,8.30
2023-01-06T19:40:59.592Z,8.30
2023-01-06T19:43:34.064Z,8.30
2023-01-06T19:46:22.390Z,8.30
2023-01-06T19:48:49.940Z,8.30
2023-01-06T19:51:33.879Z,8.30
2023-01-06T19:54:04.497Z,8.30
2023-01-06T19:56:35.420Z,8.30
2023-01-06T19:59:24.280Z,8.30
2023-01-06T20:02:09.200Z,8.30
2023-01-06T20:04:36.643Z,8.30
2023-01-06T20:07:03.525Z,8.40
2023-01-06T20:09:33.478Z,8.40
2023-01-06T20:12:00.550Z,8.40
2023-01-06T20:14:27.169Z,8.30
2023-01-06T20:16:53.982Z,8.30
2023-01-06T20:19:21.469Z,8.30
2023-01-06T20:21:48.393Z,8.40
2023-01-06T20:24:15.001Z,8.40
2023-01-06T20:26:42.291Z,8.40
2023-01-06T20:29:09.159Z,8.40
2023-01-06T20:31:35.954Z,8.40
2023-01-06T20:34:02.564Z,8.40
2023-01-06T20:36:29.289Z,8.40
2023-01-06T20:38:56.051Z,8.30
2023-01-06T20:41:22.667Z,8.30
2023-01-06T20:43:49.261Z,8.20
2023-01-06T20:46:15.883Z,8.20
2023-01-06T20:48:42.484Z,8.20
2023-01-06T20:51:09.139Z,8.20
2023-01-06T20:53:36.808Z,8.20
2023-01-06T20:56:03.553Z,8.20
2023-01-06T20:58:30.164Z,8.10
2023-01-06T21:00:56.993Z,8.00
2023-01-06T21:03:23.675Z,8.00
2023-01-06T21:05:50.285Z,8.10
2023-01-06T21:08:16.948Z,8.00
2023-01-06T21:10:43.557Z,8.00
2023-01-06T21:13:10.219Z,8.00
2023-01-06T21:15:36.865Z,8.00
2023-01-06T21:18:03.521Z,8.00
2023-01-06T21:20:30.168Z,8.00
2023-01-06T21:22:56.760Z,8.00
2023-01-06T21:25:24.679Z,8.00
2023-01-06T21:27:51.454Z,7.90
2023-01-06T21:30:18.318Z,8.00
2023-01-06T21:32:44.909Z,7.90
2023-01-06T21:35:11.516Z,7.90
2023-01-06T21:37:38.136Z,7.90
2023-01-06T21:40:08.791Z,8.00
2023-01-06T21:42:54.223Z,8.00
2023-01-06T21:45:20.948Z,7.90
2023-01-06T21:47:47.513Z,7.90
2023-01-06T21:50:14.232Z,7.90
2023-01-06T21:52:41.130Z,7.80
2023-01-06T21:55:08.266Z,7.80
2023-01-06T21:57:35.971Z,7.80
2023-01-06T22:00:04.469Z,7.90
2023-01-06T22:02:31.171Z,7.90
2023-01-06T22:04:57.880Z,7.90
2023-01-06T22:07:24.930Z,7.80
2023-01-06T22:09:53.058Z,7.90
2023-01-06T22:12:20.496Z,7.80
2023-01-06T22:14:50.465Z,7.90
2023-01-06T22:17:18.503Z,7.80
2023-01-06T22:19:46.110Z,7.80
2023-01-06T22:22:13.439Z,7.80
2023-01-06T22:24:40.587Z,7.80
2023-01-06T22:27:07.214Z,7.80
2023-01-06T22:29:33.815Z,7.80
2023-01-06T22:32:04.792Z,7.80
2023-01-06T22:34:31.418Z,7.80
2023-01-06T22:36:58.378Z,7.80
2023-01-06T22:39:25.021Z,7.80
2023-01-06T22:41:52.956Z,7.80
2023-01-06T22:44:19.725Z,7.80
2023-01-06T22:46:46.264Z,7.80
2023-01-06T22:49:12.918Z,7.80
2023-01-06T22:51:39.522Z,7.80
2023-01-06T22:54:06.296Z,7.80
2023-01-06T22:56:32.888Z,7.80
2023-01-06T22:58:59.503Z,7.70
2023-01-06T23:01:26.158Z,7.70
2023-01-06T23:03:52.774Z,7.70
2023-01-06T23:06:19.363Z,7.70
2023-01-06T23:08:58.976Z,7.70
2023-01-06T23:11:27.751Z,7.70
2023-01-06T23:13:56.761Z,7.70
2023-01-06T23:16:25.937Z,7.70
2023-01-06T23:18:52.914Z,7.70
2023-01-06T23:21:22.123Z,7.70
2023-01-06T23:23:49.544Z,7.70
2023-01-06T23:26:19.484Z,7.60
2023-01-06T23:28:46.474Z,7.60
2023-01-06T23:31:15.906Z,7.60
2023-01-06T23:33:44.713Z,7.60
2023-01-06T23:36:12.893Z,7.60
2023-01-06T23:38:39.816Z,7.60
2023-01-06T23:41:09.367Z,7.60
2023-01-06T23:43:37.200Z,7.60
2023-01-06T23:46:07.053Z,7.60
2023-01-06T23:48:34.725Z,7.50
2023-01-06T23:51:02.637Z,7.50
2023-01-06T23:53:30.311Z,7.50
2023-01-06T23:56:07.892Z,7.50
2023-01-06T23:58:36.683Z,7.50
